createdAt,value
2023-08-15T00:14:39.532Z,54.61
2023-08-15T00:29:41.345Z,54.93
2023-08-15T00:44:45.125Z,56.35
2023-08-15T00:59:47.418Z,56.94
2023-08-15T01:14:56.387Z,57.27
2023-08-15T01:29:58.066Z,60.87
2023-08-15T01:45:01.898Z,61.75
2023-08-15T02:00:04.520Z,64.33
2023-08-15T02:15:06.958Z,66.00
2023-08-15T02:30:09.621Z,70.55
2023-08-15T02:45:11.402Z,70.76
2023-08-15T03:00:13.526Z,66.90
2023-08-15T03:15:15.179Z,62.25
2023-08-15T03:30:17.148Z,60.45
2023-08-15T03:45:18.864Z,62.59
2023-08-15T04:00:20.791Z,62.47
2023-08-15T04:15:22.893Z,62.42
2023-08-15T04:30:24.539Z,61.01
2023-08-15T04:45:26.395Z,63.27
2023-08-15T05:00:29.957Z,67.20
2023-08-15T05:15:33.394Z,67.32
2023-08-15T05:30:35.123Z,68.05
2023-08-15T05:45:36.830Z,66.61
2023-08-15T06:00:39.307Z,67.86
2023-08-15T06:15:41.174Z,67.09
2023-08-15T06:30:43.252Z,67.99
2023-08-15T06:45:45.004Z,69.87
2023-08-15T07:00:46.841Z,72.16
2023-08-15T07:15:54.644Z,75.10
2023-08-15T07:30:56.555Z,77.32
2023-08-15T07:45:59.419Z,77.28
2023-08-15T08:01:01.133Z,79.46
2023-08-15T08:16:02.896Z,79.70
2023-08-15T08:31:04.761Z,78.15
2023-08-15T08:46:09.110Z,78.90
2023-08-15T09:01:13.812Z,78.92
2023-08-15T09:16:16.343Z,80.07
2023-08-15T09:31:19.561Z,79.03
2023-08-15T09:46:22.561Z,89.64
2023-08-15T10:01:30.766Z,88.00
2023-08-15T10:16:32.688Z,84.85
2023-08-15T10:31:41.377Z,84.29
2023-08-15T10:46:43.623Z,82.27
2023-08-15T11:01:47.320Z,77.07
2023-08-15T11:16:50.365Z,74.56
2023-08-15T11:31:55.805Z,74.14
2023-08-15T11:46:59.078Z,77.45
2023-08-15T12:02:02.298Z,78.44
2023-08-15T12:17:04.053Z,77.97
2023-08-15T12:32:05.791Z,77.85
2023-08-15T12:47:07.536Z,79.34
2023-08-15T13:02:10.012Z,80.47
2023-08-15T13:17:12.654Z,82.34
2023-08-15T13:32:14.405Z,82.93
2023-08-15T13:47:16.177Z,80.84
2023-08-15T14:02:17.913Z,84.87
2023-08-15T14:17:20.501Z,82.93
2023-08-15T14:32:22.441Z,81.31
2023-08-15T14:47:32.684Z,82.41
2023-08-15T15:02:35.550Z,80.07
2023-08-15T15:17:37.471Z,80.31
2023-08-15T15:32:39.312Z,81.56
2023-08-15T15:47:41.141Z,81.89
2023-08-15T16:02:43.530Z,81.76
2023-08-15T16:17:47.135Z,82.46
2023-08-15T16:32:49.605Z,82.05
2023-08-15T16:47:51.427Z,82.90
2023-08-15T17:02:54.132Z,84.16
2023-08-15T17:17:55.914Z,83.46
2023-08-15T17:32:57.697Z,79.46
2023-08-15T17:47:59.420Z,83.20
2023-08-15T18:03:01.216Z,83.92
2023-08-15T18:18:02.929Z,84.17
2023-08-15T18:33:04.982Z,86.65
2023-08-15T18:48:06.841Z,87.68
2023-08-15T19:03:09.378Z,81.08
2023-08-15T19:18:11.245Z,81.64
2023-08-15T19:33:13.387Z,79.69
2023-08-15T19:48:15.190Z,91.11
2023-08-15T20:03:16.994Z,94.85
2023-08-15T20:18:18.701Z,100.00
2023-08-15T20:33:20.498Z,99.69
2023-08-15T20:48:23.210Z,97.70
2023-08-15T21:03:25.011Z,100.00
2023-08-15T21:18:27.256Z,100.00
2023-08-15T21:33:29.028Z,100.00
2023-08-15T21:48:30.727Z,100.00
2023-08-15T22:03:32.761Z,100.00
2023-08-15T22:18:34.603Z,94.26
2023-08-15T22:33:36.397Z,88.93
2023-08-15T22:48:39.559Z,94.78
2023-08-15T23:03:41.322Z,100.00
2023-08-15T23:18:43.081Z,100.00
2023-08-15T23:33:45.895Z,100.00
2023-08-15T23:48:47.740Z,100.00
